Time;durP1;ratioP1;P1;durP2;ratioP2;P2;SDS_P1;SDS_P2;PMS_P1;PMS_P2;Temp;Humidity;BMP_temperature;BMP_pressure;BME280_temperature;BME280_humidity;BME280_pressure;Samples;Min_cycle;Max_cycle;Signal;HPM_P1;HPM_P2
2020/12/13 00:01:47;;;;;;;50.10;22.80;;;;;;;;;;745984;184;919321;-66
2020/12/13 00:04:13;;;;;;;50.83;23.58;;;;;;;;;;739025;184;1287690;-65
2020/12/13 00:06:39;;;;;;;47.90;24.27;;;;;;;;;;746315;184;919271;-68
2020/12/13 00:09:04;;;;;;;49.43;22.13;;;;;;;;;;741767;184;918236;-68
2020/12/13 00:11:30;;;;;;;58.95;26.80;;;;;;;;;;741404;184;944128;-66
2020/12/13 00:13:56;;;;;;;46.13;24.13;;;;;;;;;;745187;184;919863;-68
2020/12/13 00:16:22;;;;;;;47.80;25.23;;;;;;;;;;747391;185;922237;-67
2020/12/13 00:18:48;;;;;;;46.78;24.17;;;;;;;;;;741574;184;918761;-65
2020/12/13 00:21:14;;;;;;;66.78;24.55;;;;;;;;;;747544;184;918511;-65
2020/12/13 00:23:40;;;;;;;53.17;24.20;;;;;;;;;;749192;187;917115;-67
2020/12/13 00:26:06;;;;;;;52.20;22.40;;;;;;;;;;745597;185;919615;-68
2020/12/13 00:28:32;;;;;;;54.80;24.83;;;;;;;;;;740919;184;920031;-67
2020/12/13 00:30:58;;;;;;;44.10;21.37;;;;;;;;;;746638;184;919702;-68
2020/12/13 00:33:23;;;;;;;46.33;22.13;;;;;;;;;;738193;184;919273;-67
2020/12/13 00:35:49;;;;;;;46.40;24.80;;;;;;;;;;740666;183;919191;-68
2020/12/13 00:38:15;;;;;;;42.90;23.10;;;;;;;;;;758487;184;919034;-68
2020/12/13 00:40:41;;;;;;;44.43;22.83;;;;;;;;;;741779;184;918972;-67
2020/12/13 00:43:07;;;;;;;36.47;19.75;;;;;;;;;;745607;184;918797;-67
2020/12/13 00:45:33;;;;;;;40.63;20.97;;;;;;;;;;747706;184;919266;-67
2020/12/13 00:47:58;;;;;;;44.07;21.27;;;;;;;;;;751249;185;919296;-68
2020/12/13 00:50:24;;;;;;;39.87;20.67;;;;;;;;;;744224;185;918317;-69
2020/12/13 00:52:50;;;;;;;37.93;19.10;;;;;;;;;;737854;184;918165;-67
2020/12/13 00:55:16;;;;;;;43.43;20.57;;;;;;;;;;742882;184;916722;-68
2020/12/13 00:57:42;;;;;;;42.87;19.37;;;;;;;;;;741007;184;918634;-66
2020/12/13 01:00:08;;;;;;;44.27;20.70;;;;;;;;;;743102;184;919032;-68
2020/12/13 01:02:33;;;;;;;47.87;21.40;;;;;;;;;;755476;184;919124;-68
2020/12/13 01:04:59;;;;;;;40.57;18.77;;;;;;;;;;746378;184;919233;-66
2020/12/13 01:07:25;;;;;;;37.70;19.63;;;;;;;;;;745044;184;919070;-68
2020/12/13 01:09:52;;;;;;;42.23;19.33;;;;;;;;;;742482;188;915745;-67
2020/12/13 01:12:18;;;;;;;41.43;19.27;;;;;;;;;;741185;185;919285;-66
2020/12/13 01:14:44;;;;;;;41.20;18.97;;;;;;;;;;745844;184;917722;-66
2020/12/13 01:17:10;;;;;;;38.00;19.33;;;;;;;;;;741969;184;918037;-66
2020/12/13 01:19:36;;;;;;;51.37;22.93;;;;;;;;;;754001;184;919612;-67
2020/12/13 01:22:01;;;;;;;37.97;20.87;;;;;;;;;;744583;184;913900;-65
2020/12/13 01:24:27;;;;;;;41.23;19.87;;;;;;;;;;747840;184;918911;-65
2020/12/13 01:26:53;;;;;;;42.67;20.27;;;;;;;;;;744574;184;975442;-66
2020/12/13 01:29:19;;;;;;;40.40;20.17;;;;;;;;;;740198;184;920644;-65
2020/12/13 01:31:45;;;;;;;37.15;20.10;;;;;;;;;;737755;184;1432852;-67
2020/12/13 01:34:11;;;;;;;37.70;19.33;;;;;;;;;;746440;184;911625;-66
2020/12/13 01:36:37;;;;;;;49.10;20.77;;;;;;;;;;742036;184;914272;-66
2020/12/13 01:39:02;;;;;;;41.50;18.80;;;;;;;;;;746123;184;915681;-66
2020/12/13 01:41:29;;;;;;;38.17;20.10;;;;;;;;;;750174;183;919124;-66
2020/12/13 01:43:56;;;;;;;36.85;20.37;;;;;;;;;;737912;184;918979;-66
2020/12/13 01:46:24;;;;;;;41.83;18.57;;;;;;;;;;737070;184;918880;-66
2020/12/13 01:48:50;;;;;;;35.63;19.50;;;;;;;;;;741278;184;918624;-65
2020/12/13 01:51:27;;;;;;;33.67;19.07;;;;;;;;;;744231;184;918670;-66
2020/12/13 01:53:44;;;;;;;33.90;15.87;;;;;;;;;;745531;184;919022;-66
2020/12/13 01:56:10;;;;;;;38.37;19.43;;;;;;;;;;740973;184;931571;-66
2020/12/13 01:58:37;;;;;;;36.50;19.57;;;;;;;;;;750909;185;919040;-67
2020/12/13 02:01:02;;;;;;;41.00;19.87;;;;;;;;;;745111;184;919385;-66
2020/12/13 02:03:30;;;;;;;34.70;19.90;;;;;;;;;;741187;184;972124;-66
2020/12/13 02:05:58;;;;;;;40.57;19.50;;;;;;;;;;738309;184;919810;-64
2020/12/13 02:08:24;;;;;;;37.73;19.33;;;;;;;;;;748573;184;918560;-67
2020/12/13 02:10:50;;;;;;;44.53;19.40;;;;;;;;;;741617;184;918782;-67
2020/12/13 02:13:15;;;;;;;37.83;19.80;;;;;;;;;;744643;184;918872;-66
2020/12/13 02:15:47;;;;;;;38.57;18.60;;;;;;;;;;748208;184;919070;-66
2020/12/13 02:18:13;;;;;;;36.33;19.92;;;;;;;;;;731036;187;1995427;-66
2020/12/13 02:20:39;;;;;;;43.37;18.67;;;;;;;;;;744136;184;918147;-64
2020/12/13 02:23:05;;;;;;;40.13;22.00;;;;;;;;;;741669;184;918182;-66
2020/12/13 02:25:30;;;;;;;43.70;20.43;;;;;;;;;;750450;184;918754;-65
2020/12/13 02:27:58;;;;;;;36.20;18.90;;;;;;;;;;739667;184;918810;-63
2020/12/13 02:30:24;;;;;;;36.37;19.13;;;;;;;;;;737796;186;919481;-64
2020/12/13 02:32:49;;;;;;;39.27;18.10;;;;;;;;;;743247;184;919182;-66
2020/12/13 02:35:15;;;;;;;34.43;16.93;;;;;;;;;;743908;184;921636;-66
2020/12/13 02:37:41;;;;;;;35.57;19.03;;;;;;;;;;742898;184;914342;-66
2020/12/13 02:40:07;;;;;;;40.90;20.90;;;;;;;;;;742205;184;918697;-64
2020/12/13 02:42:34;;;;;;;37.63;19.67;;;;;;;;;;747657;185;921908;-66
2020/12/13 02:44:59;;;;;;;38.40;18.90;;;;;;;;;;739601;185;916078;-66
2020/12/13 02:47:24;;;;;;;37.37;18.50;;;;;;;;;;744912;184;909130;-66
2020/12/13 02:49:50;;;;;;;32.30;16.87;;;;;;;;;;748711;184;914784;-65
2020/12/13 02:52:16;;;;;;;40.73;19.10;;;;;;;;;;743381;184;919137;-65
2020/12/13 02:54:42;;;;;;;38.90;18.12;;;;;;;;;;738622;184;919060;-65
2020/12/13 02:57:08;;;;;;;35.50;17.53;;;;;;;;;;750976;184;918814;-66
2020/12/13 02:59:34;;;;;;;44.50;20.03;;;;;;;;;;749085;184;918584;-66
2020/12/13 03:02:00;;;;;;;41.53;20.80;;;;;;;;;;734887;184;919814;-64
2020/12/13 03:04:25;;;;;;;39.13;18.67;;;;;;;;;;741162;187;918171;-65
2020/12/13 03:06:51;;;;;;;32.70;18.77;;;;;;;;;;746904;184;918929;-66
2020/12/13 03:09:17;;;;;;;36.10;17.10;;;;;;;;;;743007;184;918947;-67
2020/12/13 03:11:43;;;;;;;37.67;18.83;;;;;;;;;;738009;184;1021544;-66
2020/12/13 03:14:09;;;;;;;37.40;18.23;;;;;;;;;;742697;185;918656;-66
2020/12/13 03:16:35;;;;;;;39.43;19.03;;;;;;;;;;740621;185;942953;-65
2020/12/13 03:19:00;;;;;;;39.07;18.23;;;;;;;;;;737890;184;919165;-64
2020/12/13 03:21:26;;;;;;;38.88;20.40;;;;;;;;;;747154;184;918875;-66
2020/12/13 03:23:52;;;;;;;37.23;19.57;;;;;;;;;;746051;184;920246;-66
2020/12/13 03:26:18;;;;;;;31.97;18.13;;;;;;;;;;745622;184;918514;-66
2020/12/13 03:28:44;;;;;;;35.77;18.40;;;;;;;;;;743346;184;918247;-66
2020/12/13 03:31:10;;;;;;;39.00;18.43;;;;;;;;;;740656;184;920347;-68
2020/12/13 03:33:35;;;;;;;37.53;17.90;;;;;;;;;;738732;184;920035;-66
2020/12/13 03:36:01;;;;;;;39.43;18.50;;;;;;;;;;741153;184;920017;-65
2020/12/13 03:38:27;;;;;;;36.60;16.67;;;;;;;;;;744150;184;918202;-65
2020/12/13 03:40:53;;;;;;;32.53;17.77;;;;;;;;;;736319;184;917781;-66
2020/12/13 03:43:19;;;;;;;30.57;17.10;;;;;;;;;;746358;184;920991;-66
2020/12/13 03:45:45;;;;;;;36.83;17.83;;;;;;;;;;753982;183;918302;-66
2020/12/13 03:48:11;;;;;;;38.73;17.83;;;;;;;;;;739513;184;1456648;-65
2020/12/13 03:50:38;;;;;;;41.10;19.40;;;;;;;;;;750854;184;918131;-65
2020/12/13 03:53:05;;;;;;;45.47;19.63;;;;;;;;;;747007;184;915506;-67
2020/12/13 03:55:31;;;;;;;40.70;18.40;;;;;;;;;;746986;183;916218;-66
2020/12/13 03:57:57;;;;;;;34.17;17.47;;;;;;;;;;744901;184;919017;-66
2020/12/13 04:00:22;;;;;;;32.97;17.00;;;;;;;;;;744420;188;919121;-65
2020/12/13 04:02:48;;;;;;;43.07;19.70;;;;;;;;;;736781;184;934005;-67
2020/12/13 04:05:14;;;;;;;33.07;16.57;;;;;;;;;;740014;184;919293;-65
2020/12/13 04:07:40;;;;;;;31.20;17.50;;;;;;;;;;737259;184;919755;-65
2020/12/13 04:10:06;;;;;;;32.83;18.33;;;;;;;;;;746024;185;919197;-66
2020/12/13 04:12:32;;;;;;;35.53;18.63;;;;;;;;;;745572;184;918607;-66
2020/12/13 04:14:57;;;;;;;40.63;20.08;;;;;;;;;;739225;184;919907;-66
2020/12/13 04:17:23;;;;;;;35.60;18.27;;;;;;;;;;745020;185;917475;-66
2020/12/13 04:19:49;;;;;;;39.63;17.60;;;;;;;;;;742781;184;919295;-65
2020/12/13 04:22:16;;;;;;;41.47;18.73;;;;;;;;;;738098;184;919663;-65
2020/12/13 04:24:41;;;;;;;40.07;16.90;;;;;;;;;;750222;184;934243;-65
2020/12/13 04:27:07;;;;;;;35.00;17.70;;;;;;;;;;742052;184;919386;-66
2020/12/13 04:29:33;;;;;;;39.87;21.20;;;;;;;;;;735513;183;2892951;-66
2020/12/13 04:31:59;;;;;;;43.50;18.80;;;;;;;;;;747039;184;918489;-65
2020/12/13 04:34:25;;;;;;;37.10;18.23;;;;;;;;;;738151;185;918983;-66
2020/12/13 04:36:51;;;;;;;34.17;17.23;;;;;;;;;;747235;185;926748;-65
2020/12/13 04:39:17;;;;;;;38.00;17.80;;;;;;;;;;739145;184;923364;-66
2020/12/13 04:41:42;;;;;;;49.93;20.63;;;;;;;;;;744858;184;917943;-67
2020/12/13 04:44:08;;;;;;;36.80;18.30;;;;;;;;;;744535;184;919451;-66
2020/12/13 04:46:34;;;;;;;38.30;19.37;;;;;;;;;;740972;188;917976;-66
2020/12/13 04:49:00;;;;;;;36.27;17.33;;;;;;;;;;749598;184;932080;-64
2020/12/13 04:51:26;;;;;;;38.37;17.60;;;;;;;;;;743264;184;919211;-66
2020/12/13 04:53:52;;;;;;;34.13;17.87;;;;;;;;;;736733;184;918987;-66
2020/12/13 04:56:17;;;;;;;36.90;17.97;;;;;;;;;;731233;192;918723;-65
2020/12/13 04:58:44;;;;;;;41.33;19.33;;;;;;;;;;744425;184;919123;-66
2020/12/13 05:01:11;;;;;;;45.23;22.10;;;;;;;;;;739036;184;918789;-65
2020/12/13 05:03:36;;;;;;;37.70;17.63;;;;;;;;;;740562;184;919202;-66
2020/12/13 05:06:02;;;;;;;37.13;18.20;;;;;;;;;;740622;184;939747;-66
2020/12/13 05:08:28;;;;;;;31.67;17.47;;;;;;;;;;744192;184;982379;-66
2020/12/13 05:10:54;;;;;;;37.97;18.37;;;;;;;;;;735807;184;918353;-66
2020/12/13 05:13:20;;;;;;;39.90;18.30;;;;;;;;;;749328;184;919417;-65
2020/12/13 05:15:46;;;;;;;42.30;17.97;;;;;;;;;;731350;184;3397079;-66
2020/12/13 05:18:11;;;;;;;35.13;17.85;;;;;;;;;;741238;185;918792;-66
2020/12/13 05:20:37;;;;;;;35.93;16.47;;;;;;;;;;741360;185;919052;-66
2020/12/13 05:23:03;;;;;;;41.03;19.63;;;;;;;;;;749150;184;919421;-66
2020/12/13 05:25:29;;;;;;;45.73;19.30;;;;;;;;;;742286;184;920071;-66
2020/12/13 05:27:55;;;;;;;38.17;18.47;;;;;;;;;;740589;184;920239;-66
2020/12/13 05:30:31;;;;;;;36.33;15.83;;;;;;;;;;745468;185;921174;-66
2020/12/13 05:33:00;;;;;;;33.27;15.57;;;;;;;;;;745899;185;915255;-65
2020/12/13 05:35:26;;;;;;;36.38;17.55;;;;;;;;;;734965;184;1470977;-66
2020/12/13 05:37:52;;;;;;;37.97;18.33;;;;;;;;;;745239;184;1021532;-65
2020/12/13 05:40:20;;;;;;;34.00;17.07;;;;;;;;;;747129;184;919192;-65
2020/12/13 05:42:54;;;;;;;35.23;15.73;;;;;;;;;;752836;184;919257;-67
2020/12/13 05:45:29;;;;;;;35.97;16.33;;;;;;;;;;738487;184;919490;-65
2020/12/13 05:48:14;;;;;;;33.92;17.00;;;;;;;;;;737978;184;918648;-65
2020/12/13 05:50:31;;;;;;;38.67;16.47;;;;;;;;;;733745;188;918601;-67
2020/12/13 05:52:48;;;;;;;34.97;17.17;;;;;;;;;;742518;184;918887;-66
2020/12/13 05:55:14;;;;;;;36.83;17.30;;;;;;;;;;741198;184;918624;-66
2020/12/13 05:57:40;;;;;;;28.30;16.10;;;;;;;;;;736027;184;918948;-64
2020/12/13 06:00:07;;;;;;;30.60;14.57;;;;;;;;;;741565;186;919145;-66
2020/12/13 06:02:32;;;;;;;26.63;15.33;;;;;;;;;;744824;184;961552;-66
2020/12/13 06:04:58;;;;;;;23.40;13.60;;;;;;;;;;742455;184;919112;-65
2020/12/13 06:07:24;;;;;;;20.37;13.27;;;;;;;;;;750086;184;922085;-66
2020/12/13 06:09:50;;;;;;;21.50;13.53;;;;;;;;;;744217;185;919173;-66
2020/12/13 06:12:15;;;;;;;25.60;13.57;;;;;;;;;;735945;184;919248;-66
2020/12/13 06:14:42;;;;;;;31.27;15.38;;;;;;;;;;747528;184;917869;-66
2020/12/13 06:17:07;;;;;;;28.10;15.87;;;;;;;;;;747370;184;918914;-66
2020/12/13 06:19:33;;;;;;;22.90;14.40;;;;;;;;;;746835;184;918794;-66
2020/12/13 06:22:01;;;;;;;22.90;14.00;;;;;;;;;;749859;184;918530;-68
2020/12/13 06:24:27;;;;;;;21.03;12.83;;;;;;;;;;743822;185;919087;-66
2020/12/13 06:26:52;;;;;;;26.57;13.90;;;;;;;;;;743260;184;918284;-66
2020/12/13 06:29:20;;;;;;;24.07;13.27;;;;;;;;;;734519;184;918977;-66
2020/12/13 06:31:44;;;;;;;23.97;14.87;;;;;;;;;;745128;185;918968;-66
2020/12/13 06:34:10;;;;;;;23.87;14.57;;;;;;;;;;740279;183;919107;-66
2020/12/13 06:36:36;;;;;;;25.40;14.60;;;;;;;;;;747942;184;920309;-64
2020/12/13 06:39:02;;;;;;;24.90;14.67;;;;;;;;;;748897;184;926491;-66
2020/12/13 06:41:27;;;;;;;20.80;13.33;;;;;;;;;;750965;184;919245;-66
2020/12/13 06:43:57;;;;;;;23.45;14.80;;;;;;;;;;743364;184;966267;-66
2020/12/13 06:46:23;;;;;;;28.50;15.50;;;;;;;;;;747457;184;919341;-66
2020/12/13 06:48:49;;;;;;;22.77;11.93;;;;;;;;;;745757;185;918604;-66
2020/12/13 06:51:17;;;;;;;29.60;17.73;;;;;;;;;;747022;184;919055;-66
2020/12/13 06:53:42;;;;;;;27.37;14.47;;;;;;;;;;740473;185;920061;-66
2020/12/13 06:56:09;;;;;;;36.97;20.47;;;;;;;;;;746225;184;917951;-66
2020/12/13 06:58:39;;;;;;;24.80;15.37;;;;;;;;;;740244;184;925388;-67
2020/12/13 07:01:05;;;;;;;26.95;15.93;;;;;;;;;;741691;184;923499;-66
2020/12/13 07:03:39;;;;;;;27.93;16.20;;;;;;;;;;743890;184;918698;-66
2020/12/13 07:06:06;;;;;;;29.93;15.83;;;;;;;;;;742593;187;920505;-66
2020/12/13 07:08:31;;;;;;;30.10;15.73;;;;;;;;;;751812;184;918594;-65
2020/12/13 07:10:56;;;;;;;22.62;14.65;;;;;;;;;;740702;184;918797;-66
2020/12/13 07:13:25;;;;;;;27.60;17.00;;;;;;;;;;746301;184;918862;-66
2020/12/13 07:16:02;;;;;;;23.87;15.07;;;;;;;;;;741819;184;918835;-66
2020/12/13 07:18:21;;;;;;;24.77;14.93;;;;;;;;;;743016;184;914747;-66
2020/12/13 07:20:47;;;;;;;25.00;15.20;;;;;;;;;;737863;183;916122;-66
2020/12/13 07:23:13;;;;;;;29.80;18.10;;;;;;;;;;750885;184;951793;-65
2020/12/13 07:25:39;;;;;;;24.73;15.67;;;;;;;;;;711273;184;5825208;-65
2020/12/13 07:28:04;;;;;;;25.15;16.08;;;;;;;;;;743031;184;1148080;-66
2020/12/13 07:30:30;;;;;;;23.63;15.43;;;;;;;;;;746219;184;918575;-66
2020/12/13 07:32:56;;;;;;;26.87;15.30;;;;;;;;;;741876;184;920582;-65
2020/12/13 07:35:22;;;;;;;30.23;17.73;;;;;;;;;;743757;184;918819;-66
2020/12/13 07:37:48;;;;;;;23.67;13.93;;;;;;;;;;749220;184;919453;-66
2020/12/13 07:40:14;;;;;;;23.57;14.13;;;;;;;;;;741436;185;918477;-65
2020/12/13 07:42:40;;;;;;;30.62;16.27;;;;;;;;;;745574;184;915359;-68
2020/12/13 07:45:08;;;;;;;29.37;15.80;;;;;;;;;;743512;184;916884;-66
2020/12/13 07:47:34;;;;;;;26.80;15.70;;;;;;;;;;749900;184;914158;-65
2020/12/13 07:50:01;;;;;;;26.60;16.43;;;;;;;;;;744208;184;919100;-66
2020/12/13 07:52:27;;;;;;;33.10;17.23;;;;;;;;;;740906;184;1107715;-66
2020/12/13 07:54:53;;;;;;;25.33;15.50;;;;;;;;;;753728;183;918222;-66
2020/12/13 07:57:19;;;;;;;34.40;18.23;;;;;;;;;;740095;184;918907;-66
2020/12/13 07:59:45;;;;;;;30.20;16.85;;;;;;;;;;744143;184;918504;-66
2020/12/13 08:02:11;;;;;;;24.57;16.17;;;;;;;;;;740238;185;918717;-66
2020/12/13 08:04:37;;;;;;;26.60;17.30;;;;;;;;;;743214;185;918725;-65
2020/12/13 08:07:03;;;;;;;32.57;19.00;;;;;;;;;;745637;184;919076;-66
2020/12/13 08:09:29;;;;;;;36.93;23.03;;;;;;;;;;741690;184;919054;-66
2020/12/13 08:11:55;;;;;;;40.70;22.80;;;;;;;;;;746981;184;1104005;-66
2020/12/13 08:14:21;;;;;;;32.53;19.33;;;;;;;;;;747275;184;919435;-65
2020/12/13 08:16:50;;;;;;;28.30;17.93;;;;;;;;;;743200;184;918898;-65
2020/12/13 08:19:17;;;;;;;27.83;18.23;;;;;;;;;;749047;184;918715;-65
2020/12/13 08:21:43;;;;;;;29.33;16.80;;;;;;;;;;746111;185;917879;-65
2020/12/13 08:24:09;;;;;;;39.17;19.60;;;;;;;;;;746985;184;921364;-65
2020/12/13 08:26:35;;;;;;;32.93;21.17;;;;;;;;;;739784;184;918719;-65
2020/12/13 08:29:02;;;;;;;34.30;19.47;;;;;;;;;;745689;184;757232;-64
2020/12/13 08:31:29;;;;;;;35.97;18.57;;;;;;;;;;741139;184;919221;-65
2020/12/13 08:33:58;;;;;;;35.50;21.10;;;;;;;;;;746258;185;1129027;-66
2020/12/13 08:36:24;;;;;;;30.73;17.10;;;;;;;;;;753053;184;919385;-66
2020/12/13 08:38:56;;;;;;;33.57;18.00;;;;;;;;;;746077;184;919026;-64
2020/12/13 08:41:23;;;;;;;35.60;18.97;;;;;;;;;;742537;184;919686;-64
2020/12/13 08:43:49;;;;;;;32.33;17.83;;;;;;;;;;737586;184;1123579;-66
2020/12/13 08:46:14;;;;;;;30.73;17.03;;;;;;;;;;751968;184;919206;-64
2020/12/13 08:48:40;;;;;;;28.77;15.77;;;;;;;;;;741735;184;921304;-65
2020/12/13 08:51:07;;;;;;;32.87;18.83;;;;;;;;;;746673;184;930931;-66
2020/12/13 08:53:33;;;;;;;32.70;18.33;;;;;;;;;;747242;184;919082;-66
2020/12/13 08:56:14;;;;;;;32.97;19.53;;;;;;;;;;739704;184;919154;-64
2020/12/13 08:58:57;;;;;;;32.70;19.67;;;;;;;;;;738482;184;921338;-65
2020/12/13 09:01:25;;;;;;;31.57;18.80;;;;;;;;;;746112;184;919404;-66
2020/12/13 09:03:48;;;;;;;25.10;15.90;;;;;;;;;;745577;184;918263;-65
2020/12/13 09:06:29;;;;;;;29.37;17.23;;;;;;;;;;740903;184;918853;-65
2020/12/13 09:08:55;;;;;;;30.10;17.43;;;;;;;;;;744786;185;919022;-65
2020/12/13 09:11:26;;;;;;;29.90;16.93;;;;;;;;;;747509;185;918699;-64
2020/12/13 09:13:52;;;;;;;27.67;17.83;;;;;;;;;;741358;184;921625;-65
2020/12/13 09:16:36;;;;;;;28.48;17.62;;;;;;;;;;746604;184;916224;-65
2020/12/13 09:19:01;;;;;;;27.00;14.50;;;;;;;;;;741094;183;952788;-64
2020/12/13 09:21:26;;;;;;;27.17;15.40;;;;;;;;;;748748;184;919280;-64
2020/12/13 09:23:52;;;;;;;24.80;14.87;;;;;;;;;;741164;184;919727;-65
2020/12/13 09:26:22;;;;;;;27.25;15.23;;;;;;;;;;739252;184;919039;-64
2020/12/13 09:28:48;;;;;;;19.27;11.83;;;;;;;;;;741494;184;919320;-66
2020/12/13 09:31:14;;;;;;;22.63;12.63;;;;;;;;;;745514;184;918064;-65
2020/12/13 09:33:40;;;;;;;21.83;13.10;;;;;;;;;;746687;184;919046;-65
2020/12/13 09:36:06;;;;;;;17.30;11.03;;;;;;;;;;738526;184;941853;-65
2020/12/13 09:38:31;;;;;;;25.08;14.05;;;;;;;;;;747322;184;919512;-65
2020/12/13 09:40:58;;;;;;;20.73;12.10;;;;;;;;;;741125;184;1056433;-66
2020/12/13 09:43:23;;;;;;;24.50;15.30;;;;;;;;;;740837;184;918766;-65
2020/12/13 09:45:49;;;;;;;24.03;11.97;;;;;;;;;;747376;184;918307;-65
2020/12/13 09:48:15;;;;;;;24.97;14.50;;;;;;;;;;742163;184;920202;-65
2020/12/13 09:50:41;;;;;;;26.55;15.88;;;;;;;;;;743313;184;919055;-65
2020/12/13 09:53:07;;;;;;;40.87;25.83;;;;;;;;;;740341;184;919235;-63
2020/12/13 09:55:33;;;;;;;25.87;16.53;;;;;;;;;;734428;188;918986;-64
2020/12/13 09:57:59;;;;;;;22.03;13.37;;;;;;;;;;747892;184;918963;-65
2020/12/13 10:00:25;;;;;;;25.93;13.07;;;;;;;;;;740194;184;921609;-66
2020/12/13 10:02:52;;;;;;;64.73;35.10;;;;;;;;;;746220;184;918887;-65
2020/12/13 10:05:27;;;;;;;23.60;13.97;;;;;;;;;;745555;184;919014;-64
2020/12/13 10:10:18;;;;;;;33.27;15.67;;;;;;;;;;740818;184;924581;-65
2020/12/13 10:12:44;;;;;;;18.27;10.10;;;;;;;;;;754484;184;918544;-65
2020/12/13 10:15:10;;;;;;;15.70;10.90;;;;;;;;;;742882;184;919337;-65
2020/12/13 10:17:36;;;;;;;25.70;14.63;;;;;;;;;;740025;184;1006938;-65
2020/12/13 10:20:02;;;;;;;25.40;12.82;;;;;;;;;;747317;184;919287;-66
2020/12/13 10:22:28;;;;;;;22.60;12.10;;;;;;;;;;734893;184;1018178;-66
2020/12/13 10:24:54;;;;;;;18.83;10.70;;;;;;;;;;745181;184;919111;-64
2020/12/13 10:27:19;;;;;;;24.67;13.20;;;;;;;;;;747334;184;919345;-66
2020/12/13 10:29:45;;;;;;;23.87;14.75;;;;;;;;;;741998;184;921650;-65
2020/12/13 10:32:11;;;;;;;22.07;12.77;;;;;;;;;;736634;187;919011;-65
2020/12/13 10:34:37;;;;;;;20.40;12.67;;;;;;;;;;744356;184;919293;-67
2020/12/13 10:37:03;;;;;;;23.30;13.70;;;;;;;;;;740982;186;918839;-65
2020/12/13 10:39:29;;;;;;;22.53;12.97;;;;;;;;;;747883;184;631653;-65
2020/12/13 10:41:55;;;;;;;16.90;9.73;;;;;;;;;;750388;184;915368;-65
2020/12/13 10:44:20;;;;;;;39.07;17.63;;;;;;;;;;748696;184;918746;-65
2020/12/13 10:46:46;;;;;;;28.03;14.47;;;;;;;;;;740677;185;919746;-65
2020/12/13 10:49:12;;;;;;;24.25;14.02;;;;;;;;;;736056;184;992206;-65
2020/12/13 10:51:38;;;;;;;21.17;13.40;;;;;;;;;;749598;184;624009;-65
2020/12/13 10:54:04;;;;;;;25.33;11.90;;;;;;;;;;744227;184;918806;-65
2020/12/13 10:56:30;;;;;;;24.33;13.13;;;;;;;;;;745381;184;914660;-64
2020/12/13 10:58:56;;;;;;;32.13;16.23;;;;;;;;;;745207;184;915986;-63
2020/12/13 11:01:22;;;;;;;23.60;11.20;;;;;;;;;;745694;186;915449;-65
2020/12/13 11:03:48;;;;;;;24.60;14.80;;;;;;;;;;738679;184;919287;-65
2020/12/13 11:06:14;;;;;;;26.93;15.20;;;;;;;;;;741889;184;918605;-65
2020/12/13 11:08:40;;;;;;;35.13;19.63;;;;;;;;;;745979;184;1015723;-64
2020/12/13 11:11:06;;;;;;;33.40;21.43;;;;;;;;;;750002;185;919388;-64
2020/12/13 11:13:31;;;;;;;29.23;18.40;;;;;;;;;;741507;184;920163;-65
2020/12/13 11:15:57;;;;;;;18.93;10.83;;;;;;;;;;750284;184;919505;-66
2020/12/13 11:18:30;;;;;;;19.37;10.57;;;;;;;;;;747753;184;940629;-65
2020/12/13 11:20:51;;;;;;;18.33;10.50;;;;;;;;;;744084;184;919976;-64
2020/12/13 11:23:17;;;;;;;21.50;14.30;;;;;;;;;;747143;184;920442;-65
2020/12/13 11:25:43;;;;;;;16.47;10.87;;;;;;;;;;727793;188;919138;-65
2020/12/13 11:28:09;;;;;;;21.13;10.17;;;;;;;;;;736703;185;920699;-65
2020/12/13 11:30:35;;;;;;;18.00;9.57;;;;;;;;;;742700;184;917153;-65
2020/12/13 11:33:01;;;;;;;14.83;8.63;;;;;;;;;;751455;184;915759;-65
2020/12/13 11:35:27;;;;;;;18.17;10.30;;;;;;;;;;742615;184;915020;-65
2020/12/13 11:37:53;;;;;;;13.47;9.17;;;;;;;;;;745091;184;914192;-65
2020/12/13 11:40:18;;;;;;;19.58;11.80;;;;;;;;;;746354;184;910041;-65
2020/12/13 11:42:44;;;;;;;23.03;12.07;;;;;;;;;;746821;184;920185;-65
2020/12/13 11:45:11;;;;;;;23.50;12.85;;;;;;;;;;743971;184;915635;-63
2020/12/13 11:47:36;;;;;;;14.67;7.73;;;;;;;;;;746005;184;918187;-65
2020/12/13 11:50:04;;;;;;;21.57;11.20;;;;;;;;;;744169;184;919399;-65
2020/12/13 11:52:28;;;;;;;17.23;10.35;;;;;;;;;;744371;184;919238;-65
2020/12/13 11:54:54;;;;;;;26.63;14.37;;;;;;;;;;739142;184;919055;-66
2020/12/13 11:57:21;;;;;;;19.57;10.47;;;;;;;;;;748689;184;918602;-64
2020/12/13 11:59:46;;;;;;;18.07;9.00;;;;;;;;;;742800;184;919241;-65
2020/12/13 12:02:12;;;;;;;16.13;8.33;;;;;;;;;;739705;184;918100;-65
2020/12/13 12:04:38;;;;;;;16.10;9.20;;;;;;;;;;747424;184;918315;-65
2020/12/13 12:07:04;;;;;;;24.10;12.67;;;;;;;;;;745526;184;918253;-63
2020/12/13 12:09:29;;;;;;;57.00;28.07;;;;;;;;;;751197;184;918860;-64
2020/12/13 12:11:55;;;;;;;21.70;10.80;;;;;;;;;;742814;183;919392;-65
2020/12/13 12:14:21;;;;;;;25.52;11.57;;;;;;;;;;739284;184;939464;-65
2020/12/13 12:16:47;;;;;;;18.67;10.57;;;;;;;;;;742978;184;1175611;-64
2020/12/13 12:19:13;;;;;;;18.97;10.10;;;;;;;;;;739871;184;1021238;-63
2020/12/13 12:21:45;;;;;;;20.70;10.60;;;;;;;;;;739533;188;921801;-65
2020/12/13 12:24:09;;;;;;;30.53;16.93;;;;;;;;;;742191;186;919443;-64
2020/12/13 12:26:35;;;;;;;14.00;8.27;;;;;;;;;;741204;185;918802;-65
2020/12/13 12:29:01;;;;;;;16.20;9.40;;;;;;;;;;750330;184;918346;-65
2020/12/13 12:31:27;;;;;;;20.20;10.77;;;;;;;;;;745414;183;919503;-64
2020/12/13 12:33:53;;;;;;;15.32;8.20;;;;;;;;;;746943;184;1022454;-64
2020/12/13 12:36:19;;;;;;;19.67;10.00;;;;;;;;;;748728;184;918631;-64
2020/12/13 12:38:45;;;;;;;15.10;7.67;;;;;;;;;;741541;184;2069398;-65
2020/12/13 12:41:11;;;;;;;15.88;9.57;;;;;;;;;;750528;184;919611;-65
2020/12/13 12:43:36;;;;;;;17.90;10.50;;;;;;;;;;741870;184;918310;-65
2020/12/13 12:46:03;;;;;;;18.13;10.20;;;;;;;;;;746222;185;918970;-64
2020/12/13 12:48:29;;;;;;;17.70;10.07;;;;;;;;;;736144;184;919154;-65
2020/12/13 12:50:55;;;;;;;17.47;9.83;;;;;;;;;;741439;184;919337;-65
2020/12/13 12:53:21;;;;;;;17.70;8.73;;;;;;;;;;747949;184;919953;-63
2020/12/13 12:55:47;;;;;;;22.13;9.53;;;;;;;;;;744577;184;1045636;-65
2020/12/13 12:58:12;;;;;;;19.00;10.60;;;;;;;;;;735604;184;919347;-65
2020/12/13 13:00:44;;;;;;;14.97;8.50;;;;;;;;;;745704;186;919239;-65
2020/12/13 13:03:07;;;;;;;15.80;9.30;;;;;;;;;;734226;186;919165;-64
2020/12/13 13:05:49;;;;;;;17.58;10.32;;;;;;;;;;742213;186;915980;-63
2020/12/13 13:08:17;;;;;;;22.70;10.43;;;;;;;;;;720836;190;919006;-65
2020/12/13 13:10:39;;;;;;;18.25;11.07;;;;;;;;;;715365;193;919892;-63
2020/12/13 13:13:04;;;;;;;17.73;10.40;;;;;;;;;;704065;196;919267;-64
2020/12/13 13:15:46;;;;;;;17.23;9.93;;;;;;;;;;742284;185;918707;-65
2020/12/13 13:18:07;;;;;;;15.57;8.90;;;;;;;;;;723205;189;918906;-64
2020/12/13 13:20:33;;;;;;;18.10;9.57;;;;;;;;;;720918;192;918336;-65
2020/12/13 13:22:58;;;;;;;14.50;8.90;;;;;;;;;;738935;186;919139;-63
2020/12/13 13:25:24;;;;;;;10.80;7.17;;;;;;;;;;722332;188;919062;-65
2020/12/13 13:27:50;;;;;;;19.37;8.40;;;;;;;;;;702014;197;1021907;-65
2020/12/13 13:30:16;;;;;;;15.40;10.03;;;;;;;;;;719826;192;919383;-64
2020/12/13 13:32:42;;;;;;;11.17;7.80;;;;;;;;;;743312;186;824823;-65
2020/12/13 13:35:08;;;;;;;15.10;8.13;;;;;;;;;;736395;185;918593;-64
2020/12/13 13:37:36;;;;;;;11.83;6.67;;;;;;;;;;744243;185;918719;-63
2020/12/13 13:39:59;;;;;;;14.93;8.07;;;;;;;;;;724253;190;919043;-64
2020/12/13 13:42:27;;;;;;;17.40;9.50;;;;;;;;;;706297;195;919400;-64
2020/12/13 13:47:31;;;;;;;13.17;8.13;;;;;;;;;;721100;192;919646;-65
2020/12/13 13:52:23;;;;;;;12.77;8.17;;;;;;;;;;725321;190;919175;-65
2020/12/13 13:54:51;;;;;;;12.50;8.23;;;;;;;;;;721827;192;918177;-65
2020/12/13 13:57:19;;;;;;;15.88;8.73;;;;;;;;;;724137;190;919134;-64
2020/12/13 13:59:42;;;;;;;16.23;9.23;;;;;;;;;;725281;189;919118;-65
2020/12/13 14:02:08;;;;;;;12.00;8.00;;;;;;;;;;723287;189;918596;-65
2020/12/13 14:04:34;;;;;;;14.27;9.10;;;;;;;;;;728103;190;1016154;-63
2020/12/13 14:08:22;;;;;;;13.67;9.13;;;;;;;;;;736938;184;1348155;-63